Frederike Selmer — V7QY8 — position and weather

sailwx.info

Track history (hours):
 
Tides and Currents Weather Stations Pressure Air Temp Water Temp Dewpoint Dewpoint Depression Visibility Wind Speed Wind Dir Waves Ship Positions

Frederike Selmer

Last reported at 2015-Jan-31 09:33 UTC. Time now 2015-Jan-31 10:09 UTC.
Position N 51°16' E 004°15'.

Length 188 m; draft 6.5 m.

Type: Cargo ship. MMSI: 538090377.

Date/timePositionNaut miles runAvg speedWind from/ knotsBaromVisibWave heightAir tempDewpointWater temp
2015-Jan-31 09:33N 51°16' E 004°15'1 1.2
2015-Jan-31 08:34N 51°16' E 004°17'3 3.0
2015-Jan-31 07:34N 51°19' E 004°16'10 9.9
2015-Jan-31 06:34N 51°23' E 004°02'9 8.9
2015-Jan-31 05:33N 51°21' E 003°49'9 9.4
2015-Jan-31 04:33N 51°25' E 003°35'8 8.3
2015-Jan-31 03:33N 51°24' E 003°22'1211.6
2015-Jan-31 02:33N 51°24' E 003°03'1212.2
2015-Jan-31 01:33N 51°23' E 002°44'3 3.1
2015-Jan-31 00:29N 51°26' E 002°40'0 0.0
2015-Jan-30 23:32N 51°26' E 002°41'0 0.0
2015-Jan-30 22:32N 51°26' E 002°41'0 0.0
2015-Jan-30 21:32N 51°26' E 002°41'0 0.0
2015-Jan-30 20:32N 51°26' E 002°40'0 0.0
2015-Jan-30 19:31N 51°26' E 002°40'0 0.1
2015-Jan-30 18:32N 51°26' E 002°40'0 0.4
2015-Jan-30 17:33N 51°25' E 002°40'9 8.6
2015-Jan-30 16:33N 51°21' E 002°28'1412.2
2015-Jan-30 15:27N 51°15' E 002°09'1112.5
2015-Jan-30 14:33N 51°10' E 001°53'9 8.8
2015-Jan-30 13:33N 51°02' E 001°47'291 6.6
2015-Jan-28 17:16N 51°50' W 005°54'912.3
2015-Jan-28 16:33N 51°58' W 005°50'1212.0
2015-Jan-28 15:33N 52°10' W 005°45'11011.0
2015-Jan-28 05:33N 53°34' W 003°47'1312.8
2015-Jan-28 04:33N 53°33' W 003°26'10 9.6
2015-Jan-28 03:33N 53°32' W 003°10'8 8.0
2015-Jan-28 02:33N 53°26' W 003°01'1 0.6
2015-Jan-28 01:33N 53°27' W 003°01'0 0.4
2015-Jan-28 00:33N 53°26' W 003°00'0 0.2
2015-Jan-27 23:33N 53°26' W 003°00'0 0.0
2015-Jan-27 22:33N 53°26' W 003°00'0 0.0
2015-Jan-27 21:33N 53°26' W 003°00'0 0.0
2015-Jan-27 20:33N 53°26' W 003°00'0 0.0
2015-Jan-27 19:33N 53°26' W 003°00'0 0.0
2015-Jan-27 18:33N 53°26' W 003°00'0 0.0
2015-Jan-27 17:27N 53°26' W 003°00'0 0.0
2015-Jan-27 16:33N 53°26' W 003°00'0 0.0
2015-Jan-27 15:27N 53°26' W 003°00'0 0.0
2015-Jan-27 14:21N 53°26' W 003°00'0 0.0
2015-Jan-27 13:27N 53°26' W 003°00'0 0.0
2015-Jan-27 12:33N 53°26' W 003°00'0 0.0
2015-Jan-27 11:33N 53°26' W 003°00'0 0.0
2015-Jan-27 10:27N 53°26' W 003°00'0 0.0
2015-Jan-27 09:33N 53°26' W 003°00'0 0.0
2015-Jan-27 08:33N 53°26' W 003°00'0 0.0
2015-Jan-27 07:33N 53°26' W 003°00'0 0.0
2015-Jan-27 06:33N 53°26' W 003°00'0 0.0
2015-Jan-27 05:33N 53°26' W 003°00'0 0.0
2015-Jan-27 04:27N 53°26' W 003°00'0 0.0
2015-Jan-27 03:27N 53°26' W 003°00'0 0.0
2015-Jan-27 02:33N 53°26' W 003°00'0 0.0
2015-Jan-27 01:33N 53°26' W 003°00'0 0.0
2015-Jan-27 00:33N 53°26' W 003°00'0 0.0
2015-Jan-26 23:27N 53°26' W 003°00'0 0.0
2015-Jan-26 22:33N 53°26' W 003°00'0 0.0
2015-Jan-26 21:33N 53°26' W 003°00'0 0.0
2015-Jan-26 20:27N 53°26' W 003°00'0 0.0
2015-Jan-26 19:33N 53°26' W 003°00'0 0.0
2015-Jan-26 18:27N 53°26' W 003°00'0 0.0
2015-Jan-26 17:33N 53°26' W 003°00'0 0.0
2015-Jan-26 16:33N 53°26' W 003°00'0 0.0
2015-Jan-26 15:21N 53°26' W 003°00'0 0.0
2015-Jan-26 14:33N 53°26' W 003°00'0 0.0
2015-Jan-26 13:33N 53°26' W 003°00'0 0.0
2015-Jan-26 12:33N 53°26' W 003°00'0 0.0
2015-Jan-26 11:33N 53°26' W 003°00'0 0.0
2015-Jan-26 10:30N 53°26' W 003°00'0 0.0
2015-Jan-26 09:33N 53°26' W 003°00'0 0.0
2015-Jan-26 08:27N 53°26' W 003°00'0 0.0
2015-Jan-26 07:27N 53°26' W 003°00'0 0.0
2015-Jan-26 06:27N 53°26' W 003°00'0 0.0
2015-Jan-26 05:33N 53°26' W 003°00'0 0.0
2015-Jan-26 04:33N 53°26' W 003°00'0 0.0
2015-Jan-26 03:33N 53°26' W 003°00'0 0.0
2015-Jan-26 02:33N 53°26' W 003°00'0 0.0
2015-Jan-26 01:33N 53°26' W 003°00'0 0.0
2015-Jan-26 00:33N 53°26' W 003°00'0 0.0
2015-Jan-25 23:33N 53°26' W 003°00'0 0.0
2015-Jan-25 22:27N 53°26' W 003°00'0 0.0
2015-Jan-25 21:33N 53°26' W 003°00'0 0.0
2015-Jan-25 20:33N 53°26' W 003°00'0 0.0
2015-Jan-25 19:33N 53°26' W 003°00'0 0.0
2015-Jan-25 18:33N 53°26' W 003°00'0 0.0
2015-Jan-25 17:33N 53°26' W 003°00'0 0.0
2015-Jan-25 16:27N 53°26' W 003°00'0 0.0
2015-Jan-25 15:27N 53°26' W 003°00'0 0.0
2015-Jan-25 14:15N 53°26' W 003°00'0 0.0
2015-Jan-25 13:33N 53°26' W 003°00'0 0.0
2015-Jan-25 12:33N 53°26' W 003°00'0 0.0
2015-Jan-25 11:27N 53°26' W 003°00'0 0.0
2015-Jan-25 10:27N 53°26' W 003°00'0 0.0
2015-Jan-25 09:33N 53°26' W 003°00'0 0.0
2015-Jan-25 08:27N 53°26' W 003°00'0 0.0
2015-Jan-25 07:15N 53°26' W 003°00'0 0.0
2015-Jan-25 06:27N 53°26' W 003°00'0 0.0
2015-Jan-25 05:33N 53°26' W 003°00'0 0.0
2015-Jan-25 04:33N 53°26' W 003°00'0 0.0
2015-Jan-25 03:33N 53°26' W 003°00'0 0.0
2015-Jan-25 02:33N 53°26' W 003°00'0 0.0
2015-Jan-25 01:33N 53°26' W 003°00'0 0.0
2015-Jan-25 00:27N 53°26' W 003°00'0 0.0
2015-Jan-24 23:27N 53°26' W 003°00'0 0.0
2015-Jan-24 22:27N 53°26' W 003°00'0 0.0
2015-Jan-24 21:33N 53°26' W 003°00'0 0.0
2015-Jan-24 20:33N 53°26' W 003°00'0 0.0
2015-Jan-24 19:33N 53°26' W 003°00'0 0.0
2015-Jan-24 18:33N 53°26' W 003°00'0 0.0
2015-Jan-24 17:27N 53°26' W 003°00'0 0.0
2015-Jan-24 16:33N 53°26' W 003°00'0 0.0
2015-Jan-24 15:33N 53°26' W 003°00'0 0.0
2015-Jan-24 14:27N 53°26' W 003°00'0 0.0
2015-Jan-24 13:21N 53°26' W 003°00'0 0.0
2015-Jan-24 12:33N 53°26' W 003°00'0 0.0
2015-Jan-24 11:33N 53°26' W 003°00'0 0.0
2015-Jan-24 10:33N 53°26' W 003°00'0 0.0
2015-Jan-24 09:33N 53°26' W 003°00'0 0.0
2015-Jan-24 08:33N 53°26' W 003°00'0 0.0
2015-Jan-24 07:33N 53°26' W 003°00'0 0.0
2015-Jan-24 06:33N 53°26' W 003°00'0 0.0
2015-Jan-24 05:33N 53°26' W 003°00'0 0.0
2015-Jan-24 04:27N 53°26' W 003°00'0 0.0
2015-Jan-24 03:32N 53°26' W 003°00'0 0.0
2015-Jan-24 02:32N 53°26' W 003°00'0 0.0
2015-Jan-24 01:32N 53°26' W 003°00'0 0.0
2015-Jan-24 00:32N 53°26' W 003°00'0 0.0
2015-Jan-23 23:32N 53°26' W 003°00'0 0.0
2015-Jan-23 22:32N 53°26' W 003°00'0 0.0
2015-Jan-23 21:33N 53°26' W 003°00'0 0.0
2015-Jan-23 20:32N 53°26' W 003°00'0 0.0
2015-Jan-23 19:32N 53°26' W 003°00'0 0.0
2015-Jan-23 18:32N 53°26' W 003°00'0 0.0
2015-Jan-23 17:32N 53°26' W 003°00'0 0.0
2015-Jan-23 16:32N 53°26' W 003°00'0 0.0
2015-Jan-23 15:20N 53°26' W 003°00'0 0.0
2015-Jan-23 14:32N 53°26' W 003°00'0 0.0
2015-Jan-23 13:26N 53°26' W 003°00'0 0.0
2015-Jan-23 12:32N 53°26' W 003°00'0 0.0
2015-Jan-23 11:26N 53°26' W 003°00'0 0.0
2015-Jan-23 10:32N 53°26' W 003°00'0 0.0
2015-Jan-23 09:32N 53°26' W 003°00'0 0.0
2015-Jan-23 08:20N 53°26' W 003°00'0 0.0
2015-Jan-23 07:32N 53°26' W 003°00'0 0.0
2015-Jan-23 06:32N 53°26' W 003°00'0 0.0
2015-Jan-23 05:26N 53°26' W 003°00'0 0.0
2015-Jan-23 04:32N 53°26' W 003°00'0 0.0
2015-Jan-23 03:26N 53°26' W 003°00'0 0.0
2015-Jan-23 02:26N 53°26' W 003°00'0 0.0
2015-Jan-23 01:20N 53°26' W 003°00'0 0.0
2015-Jan-23 00:32N 53°26' W 003°00'0 0.0
2015-Jan-22 23:32N 53°26' W 003°00'0 0.0
2015-Jan-22 22:32N 53°26' W 003°00'0 0.0
2015-Jan-22 21:32N 53°26' W 003°00'0 0.0
2015-Jan-22 20:32N 53°26' W 003°00'0 0.0
2015-Jan-22 19:32N 53°26' W 003°00'0 0.0
2015-Jan-22 18:32N 53°26' W 003°00'0 0.0
2015-Jan-22 17:32N 53°26' W 003°00'0 0.0
2015-Jan-22 16:32N 53°26' W 003°00'0 0.0
2015-Jan-22 15:32N 53°26' W 003°00'0 0.0
2015-Jan-22 14:33N 53°26' W 003°00'0 0.0
2015-Jan-22 13:32N 53°26' W 003°00'0 0.0
2015-Jan-22 12:32N 53°26' W 003°00'0 0.0
2015-Jan-22 11:33N 53°26' W 003°00'0 0.1
2015-Jan-22 10:33N 53°26' W 003°01'1 0.9
2015-Jan-22 09:33N 53°27' W 003°01'1 0.7
2015-Jan-22 08:31N 53°28' W 003°02'0 0.0
2015-Jan-22 07:31N 53°28' W 003°02'0 0.0
2015-Jan-22 06:25N 53°28' W 003°02'0 0.0
2015-Jan-22 05:31N 53°28' W 003°02'0 0.0
2015-Jan-22 04:31N 53°28' W 003°02'0 0.0
2015-Jan-22 03:31N 53°28' W 003°02'0 0.0
2015-Jan-22 02:31N 53°28' W 003°02'0 0.0
2015-Jan-22 01:31N 53°28' W 003°02'0 0.0
2015-Jan-22 00:31N 53°28' W 003°02'0 0.0
2015-Jan-21 23:31N 53°28' W 003°02'0 0.0
2015-Jan-21 22:49N 53°28' W 003°02'0 0.0
2015-Jan-21 22:43N 53°28' W 003°02'0 0.0
2015-Jan-21 22:25N 53°28' W 003°02'0 0.0
2015-Jan-21 21:31N 53°28' W 003°02'0 0.0
2015-Jan-21 20:31N 53°28' W 003°02'0 0.0
2015-Jan-21 19:31N 53°28' W 003°02'0 0.0
2015-Jan-21 18:31N 53°28' W 003°02'0 0.0
2015-Jan-21 17:31N 53°28' W 003°02'0 0.0
2015-Jan-21 16:31N 53°28' W 003°02'0 0.0
2015-Jan-21 15:31N 53°28' W 003°02'0 0.0
2015-Jan-21 14:31N 53°28' W 003°02'0 0.0
2015-Jan-21 13:31N 53°28' W 003°02'0 0.0
2015-Jan-21 12:31N 53°28' W 003°02'0 0.0
2015-Jan-21 11:31N 53°28' W 003°02'0 0.0
2015-Jan-21 10:25N 53°28' W 003°02'  
Track history (hours):
 
Tides and Currents Weather Stations Pressure Air Temp Water Temp Dewpoint Dewpoint Depression Visibility Wind Speed Wind Dir Waves Ship Positions

Frederike Selmer

Last reported at 2015-Jan-31 09:33 UTC. Time now 2015-Jan-31 10:09 UTC.
Position N 51°16' E 004°15'.

Length 188 m; draft 6.5 m.

Type: Cargo ship. MMSI: 538090377.

Date/timePositionNaut miles runAvg speedWind from/ knotsBaromVisibWave heightAir tempDewpointWater temp
2015-Jan-31 09:33N 51°16' E 004°15'1 1.2
2015-Jan-31 08:34N 51°16' E 004°17'3 3.0
2015-Jan-31 07:34N 51°19' E 004°16'10 9.9
2015-Jan-31 06:34N 51°23' E 004°02'9 8.9
2015-Jan-31 05:33N 51°21' E 003°49'9 9.4
2015-Jan-31 04:33N 51°25' E 003°35'8 8.3
2015-Jan-31 03:33N 51°24' E 003°22'1211.6
2015-Jan-31 02:33N 51°24' E 003°03'1212.2
2015-Jan-31 01:33N 51°23' E 002°44'3 3.1
2015-Jan-31 00:29N 51°26' E 002°40'0 0.0
2015-Jan-30 23:32N 51°26' E 002°41'0 0.0
2015-Jan-30 22:32N 51°26' E 002°41'0 0.0
2015-Jan-30 21:32N 51°26' E 002°41'0 0.0
2015-Jan-30 20:32N 51°26' E 002°40'0 0.0
2015-Jan-30 19:31N 51°26' E 002°40'0 0.1
2015-Jan-30 18:32N 51°26' E 002°40'0 0.4
2015-Jan-30 17:33N 51°25' E 002°40'9 8.6
2015-Jan-30 16:33N 51°21' E 002°28'1412.2
2015-Jan-30 15:27N 51°15' E 002°09'1112.5
2015-Jan-30 14:33N 51°10' E 001°53'9 8.8
2015-Jan-30 13:33N 51°02' E 001°47'291 6.6
2015-Jan-28 17:16N 51°50' W 005°54'912.3
2015-Jan-28 16:33N 51°58' W 005°50'1212.0
2015-Jan-28 15:33N 52°10' W 005°45'11011.0
2015-Jan-28 05:33N 53°34' W 003°47'1312.8
2015-Jan-28 04:33N 53°33' W 003°26'10 9.6
2015-Jan-28 03:33N 53°32' W 003°10'8 8.0
2015-Jan-28 02:33N 53°26' W 003°01'1 0.6
2015-Jan-28 01:33N 53°27' W 003°01'0 0.4
2015-Jan-28 00:33N 53°26' W 003°00'0 0.2
2015-Jan-27 23:33N 53°26' W 003°00'0 0.0
2015-Jan-27 22:33N 53°26' W 003°00'0 0.0
2015-Jan-27 21:33N 53°26' W 003°00'0 0.0
2015-Jan-27 20:33N 53°26' W 003°00'0 0.0
2015-Jan-27 19:33N 53°26' W 003°00'0 0.0
2015-Jan-27 18:33N 53°26' W 003°00'0 0.0
2015-Jan-27 17:27N 53°26' W 003°00'0 0.0
2015-Jan-27 16:33N 53°26' W 003°00'0 0.0
2015-Jan-27 15:27N 53°26' W 003°00'0 0.0
2015-Jan-27 14:21N 53°26' W 003°00'0 0.0
2015-Jan-27 13:27N 53°26' W 003°00'0 0.0
2015-Jan-27 12:33N 53°26' W 003°00'0 0.0
2015-Jan-27 11:33N 53°26' W 003°00'0 0.0
2015-Jan-27 10:27N 53°26' W 003°00'0 0.0
2015-Jan-27 09:33N 53°26' W 003°00'0 0.0
2015-Jan-27 08:33N 53°26' W 003°00'0 0.0
2015-Jan-27 07:33N 53°26' W 003°00'0 0.0
2015-Jan-27 06:33N 53°26' W 003°00'0 0.0
2015-Jan-27 05:33N 53°26' W 003°00'0 0.0
2015-Jan-27 04:27N 53°26' W 003°00'0 0.0
2015-Jan-27 03:27N 53°26' W 003°00'0 0.0
2015-Jan-27 02:33N 53°26' W 003°00'0 0.0
2015-Jan-27 01:33N 53°26' W 003°00'0 0.0
2015-Jan-27 00:33N 53°26' W 003°00'0 0.0
2015-Jan-26 23:27N 53°26' W 003°00'0 0.0
2015-Jan-26 22:33N 53°26' W 003°00'0 0.0
2015-Jan-26 21:33N 53°26' W 003°00'0 0.0
2015-Jan-26 20:27N 53°26' W 003°00'0 0.0
2015-Jan-26 19:33N 53°26' W 003°00'0 0.0
2015-Jan-26 18:27N 53°26' W 003°00'0 0.0
2015-Jan-26 17:33N 53°26' W 003°00'0 0.0
2015-Jan-26 16:33N 53°26' W 003°00'0 0.0
2015-Jan-26 15:21N 53°26' W 003°00'0 0.0
2015-Jan-26 14:33N 53°26' W 003°00'0 0.0
2015-Jan-26 13:33N 53°26' W 003°00'0 0.0
2015-Jan-26 12:33N 53°26' W 003°00'0 0.0
2015-Jan-26 11:33N 53°26' W 003°00'0 0.0
2015-Jan-26 10:30N 53°26' W 003°00'0 0.0
2015-Jan-26 09:33N 53°26' W 003°00'0 0.0
2015-Jan-26 08:27N 53°26' W 003°00'0 0.0
2015-Jan-26 07:27N 53°26' W 003°00'0 0.0
2015-Jan-26 06:27N 53°26' W 003°00'0 0.0
2015-Jan-26 05:33N 53°26' W 003°00'0 0.0
2015-Jan-26 04:33N 53°26' W 003°00'0 0.0
2015-Jan-26 03:33N 53°26' W 003°00'0 0.0
2015-Jan-26 02:33N 53°26' W 003°00'0 0.0
2015-Jan-26 01:33N 53°26' W 003°00'0 0.0
2015-Jan-26 00:33N 53°26' W 003°00'0 0.0
2015-Jan-25 23:33N 53°26' W 003°00'0 0.0
2015-Jan-25 22:27N 53°26' W 003°00'0 0.0
2015-Jan-25 21:33N 53°26' W 003°00'0 0.0
2015-Jan-25 20:33N 53°26' W 003°00'0 0.0
2015-Jan-25 19:33N 53°26' W 003°00'0 0.0
2015-Jan-25 18:33N 53°26' W 003°00'0 0.0
2015-Jan-25 17:33N 53°26' W 003°00'0 0.0
2015-Jan-25 16:27N 53°26' W 003°00'0 0.0
2015-Jan-25 15:27N 53°26' W 003°00'0 0.0
2015-Jan-25 14:15N 53°26' W 003°00'0 0.0
2015-Jan-25 13:33N 53°26' W 003°00'0 0.0
2015-Jan-25 12:33N 53°26' W 003°00'0 0.0
2015-Jan-25 11:27N 53°26' W 003°00'0 0.0
2015-Jan-25 10:27N 53°26' W 003°00'0 0.0
2015-Jan-25 09:33N 53°26' W 003°00'0 0.0
2015-Jan-25 08:27N 53°26' W 003°00'0 0.0
2015-Jan-25 07:15N 53°26' W 003°00'0 0.0
2015-Jan-25 06:27N 53°26' W 003°00'0 0.0
2015-Jan-25 05:33N 53°26' W 003°00'0 0.0
2015-Jan-25 04:33N 53°26' W 003°00'0 0.0
2015-Jan-25 03:33N 53°26' W 003°00'0 0.0
2015-Jan-25 02:33N 53°26' W 003°00'0 0.0
2015-Jan-25 01:33N 53°26' W 003°00'0 0.0
2015-Jan-25 00:27N 53°26' W 003°00'0 0.0
2015-Jan-24 23:27N 53°26' W 003°00'0 0.0
2015-Jan-24 22:27N 53°26' W 003°00'0 0.0
2015-Jan-24 21:33N 53°26' W 003°00'0 0.0
2015-Jan-24 20:33N 53°26' W 003°00'0 0.0
2015-Jan-24 19:33N 53°26' W 003°00'0 0.0
2015-Jan-24 18:33N 53°26' W 003°00'0 0.0
2015-Jan-24 17:27N 53°26' W 003°00'0 0.0
2015-Jan-24 16:33N 53°26' W 003°00'0 0.0
2015-Jan-24 15:33N 53°26' W 003°00'0 0.0
2015-Jan-24 14:27N 53°26' W 003°00'0 0.0
2015-Jan-24 13:21N 53°26' W 003°00'0 0.0
2015-Jan-24 12:33N 53°26' W 003°00'0 0.0
2015-Jan-24 11:33N 53°26' W 003°00'0 0.0
2015-Jan-24 10:33N 53°26' W 003°00'0 0.0
2015-Jan-24 09:33N 53°26' W 003°00'0 0.0
2015-Jan-24 08:33N 53°26' W 003°00'0 0.0
2015-Jan-24 07:33N 53°26' W 003°00'0 0.0
2015-Jan-24 06:33N 53°26' W 003°00'0 0.0
2015-Jan-24 05:33N 53°26' W 003°00'0 0.0
2015-Jan-24 04:27N 53°26' W 003°00'0 0.0
2015-Jan-24 03:32N 53°26' W 003°00'0 0.0
2015-Jan-24 02:32N 53°26' W 003°00'0 0.0
2015-Jan-24 01:32N 53°26' W 003°00'0 0.0
2015-Jan-24 00:32N 53°26' W 003°00'0 0.0
2015-Jan-23 23:32N 53°26' W 003°00'0 0.0
2015-Jan-23 22:32N 53°26' W 003°00'0 0.0
2015-Jan-23 21:33N 53°26' W 003°00'0 0.0
2015-Jan-23 20:32N 53°26' W 003°00'0 0.0
2015-Jan-23 19:32N 53°26' W 003°00'0 0.0
2015-Jan-23 18:32N 53°26' W 003°00'0 0.0
2015-Jan-23 17:32N 53°26' W 003°00'0 0.0
2015-Jan-23 16:32N 53°26' W 003°00'0 0.0
2015-Jan-23 15:20N 53°26' W 003°00'0 0.0
2015-Jan-23 14:32N 53°26' W 003°00'0 0.0
2015-Jan-23 13:26N 53°26' W 003°00'0 0.0
2015-Jan-23 12:32N 53°26' W 003°00'0 0.0
2015-Jan-23 11:26N 53°26' W 003°00'0 0.0
2015-Jan-23 10:32N 53°26' W 003°00'0 0.0
2015-Jan-23 09:32N 53°26' W 003°00'0 0.0
2015-Jan-23 08:20N 53°26' W 003°00'0 0.0
2015-Jan-23 07:32N 53°26' W 003°00'0 0.0
2015-Jan-23 06:32N 53°26' W 003°00'0 0.0
2015-Jan-23 05:26N 53°26' W 003°00'0 0.0
2015-Jan-23 04:32N 53°26' W 003°00'0 0.0
2015-Jan-23 03:26N 53°26' W 003°00'0 0.0
2015-Jan-23 02:26N 53°26' W 003°00'0 0.0
2015-Jan-23 01:20N 53°26' W 003°00'0 0.0
2015-Jan-23 00:32N 53°26' W 003°00'0 0.0
2015-Jan-22 23:32N 53°26' W 003°00'0 0.0
2015-Jan-22 22:32N 53°26' W 003°00'0 0.0
2015-Jan-22 21:32N 53°26' W 003°00'0 0.0
2015-Jan-22 20:32N 53°26' W 003°00'0 0.0
2015-Jan-22 19:32N 53°26' W 003°00'0 0.0
2015-Jan-22 18:32N 53°26' W 003°00'0 0.0
2015-Jan-22 17:32N 53°26' W 003°00'0 0.0
2015-Jan-22 16:32N 53°26' W 003°00'0 0.0
2015-Jan-22 15:32N 53°26' W 003°00'0 0.0
2015-Jan-22 14:33N 53°26' W 003°00'0 0.0
2015-Jan-22 13:32N 53°26' W 003°00'0 0.0
2015-Jan-22 12:32N 53°26' W 003°00'0 0.0
2015-Jan-22 11:33N 53°26' W 003°00'0 0.1
2015-Jan-22 10:33N 53°26' W 003°01'1 0.9
2015-Jan-22 09:33N 53°27' W 003°01'1 0.7
2015-Jan-22 08:31N 53°28' W 003°02'0 0.0
2015-Jan-22 07:31N 53°28' W 003°02'0 0.0
2015-Jan-22 06:25N 53°28' W 003°02'0 0.0
2015-Jan-22 05:31N 53°28' W 003°02'0 0.0
2015-Jan-22 04:31N 53°28' W 003°02'0 0.0
2015-Jan-22 03:31N 53°28' W 003°02'0 0.0
2015-Jan-22 02:31N 53°28' W 003°02'0 0.0
2015-Jan-22 01:31N 53°28' W 003°02'0 0.0
2015-Jan-22 00:31N 53°28' W 003°02'0 0.0
2015-Jan-21 23:31N 53°28' W 003°02'0 0.0
2015-Jan-21 22:49N 53°28' W 003°02'0 0.0
2015-Jan-21 22:43N 53°28' W 003°02'0 0.0
2015-Jan-21 22:25N 53°28' W 003°02'0 0.0
2015-Jan-21 21:31N 53°28' W 003°02'0 0.0
2015-Jan-21 20:31N 53°28' W 003°02'0 0.0
2015-Jan-21 19:31N 53°28' W 003°02'0 0.0
2015-Jan-21 18:31N 53°28' W 003°02'0 0.0
2015-Jan-21 17:31N 53°28' W 003°02'0 0.0
2015-Jan-21 16:31N 53°28' W 003°02'0 0.0
2015-Jan-21 15:31N 53°28' W 003°02'0 0.0
2015-Jan-21 14:31N 53°28' W 003°02'0 0.0
2015-Jan-21 13:31N 53°28' W 003°02'0 0.0
2015-Jan-21 12:31N 53°28' W 003°02'0 0.0
2015-Jan-21 11:31N 53°28' W 003°02'0 0.0
2015-Jan-21 10:25N 53°28' W 003°02'  

Dump ship's entire track history